KFMY/FMY METAR and TAF weather

Enter ICAO airport designator
Station Type Date Time Source
KFMY METAR 2019/07/20 04:53 UTC NOAA

KFMY 200453Z AUTO 05004KT 10SM CLR 24/22 A3007 RMK AO2 SLP185 T02390222 403330217


Station Type Date Time Source
KFMY Decoded METAR 2019/07/20 04:53 UTC NOAA

FORT MYERS PAGE FIELD, FL, United States (KFMY) 26-35N 081-52W 4M
Jul 20, 2019 - 12:53 AM EDT / 2019.07.20 0453 UTC
Wind: from the NE (050 degrees) at 5 MPH (4 KT):0
Visibility: 10 mile(s):0
Sky conditions: clear
Temperature: 75.0 F (23.9 C)
Dew Point: 72.0 F (22.2 C)
Relative Humidity: 90%
Pressure (altimeter): 30.07 in. Hg (1018 hPa)
ob: KFMY 200453Z AUTO 05004KT 10SM CLR 24/22 A3007 RMK AO2 SLP185 T02390222 403330217
cycle: 5

Station Type Date Time Source
KFMY TAF 2019/07/20 06:22 UTC NOAA

TAF KFMY 200520Z 2006/2106 VRB03KT P6SM BKN250
FM201500 13006KT P6SM SCT030 SCT250
FM201900 18007KT P6SM VCTS SCT040CB SCT250
FM210200 VRB03KT P6SM FEW040 SCT200

Example: see airport list